M I D A S
Marine Information and Data Acquisition System
Tripno 552 of the Zeeleeuw from 2003-08-20 07:26:36 to 2003-08-20 14:04:50
Back to CruiseResearch ActivitiesStationsMapUnderway DataData graphs

EquipmentUnitsComment
TimeDGPSUTC
LatitudeDGPSDM.mWGS84
LongitudeDGPSDM.mWGS84
HeadingGyrodeg 
SOGDGPSknotsSpeed over ground
COGDGPSdegCourse over ground
DepthEcho soundermeters200 kHz
Missing or incorrect values are displayed as -999
Navigation data collected by the RV Zeeleeuw from 2003-08-20 07:26:36 to 2003-08-20 14:04:50
                                                                                    Next 1000 lines
Time Latitude Longitude Heading SOG COG Depth
2003-08-20 07:26:44 51°11.45 2°46.14 247.4 10.4 246 11.9
2003-08-20 07:26:50 51°11.45 2°46.11 247.7 10.7 244 12
2003-08-20 07:26:54 51°11.44 2°46.1 247.7 11.1 246 11.9
2003-08-20 07:27:00 51°11.43 2°46.07 247.7 11.5 245 11.9
2003-08-20 07:27:06 51°11.43 2°46.04 247.4 12 245 11.9
2003-08-20 07:27:10 51°11.42 2°46.02 247.4 12.2 245 11.8
2003-08-20 07:27:14 51°11.41 2°46 246.7 12.3 243 11.8
2003-08-20 07:27:20 51°11.4 2°45.97 246.5 12.6 244 11.8
2003-08-20 07:27:26 51°11.39 2°45.94 246 12.8 243 11.7
2003-08-20 07:27:30 51°11.39 2°45.92 246 12.9 245 11.7
2003-08-20 07:27:34 51°11.38 2°45.9 246.7 12.9 243 11.7
2003-08-20 07:27:40 51°11.37 2°45.87 247.3 12.9 245 11.8
2003-08-20 07:27:46 51°11.36 2°45.84 247.2 13 244 11.8
2003-08-20 07:27:50 51°11.36 2°45.82 247.3 13 245 11.7
2003-08-20 07:27:54 51°11.35 2°45.8 247.3 13 244 11.7
2003-08-20 07:28:00 51°11.34 2°45.76 247.2 13.1 244 11.7
2003-08-20 07:28:06 51°11.33 2°45.73 247.2 13.2 245 11.6
2003-08-20 07:28:10 51°11.33 2°45.71 246.7 13.2 243 11.7
2003-08-20 07:28:14 51°11.32 2°45.69 247 13.3 245 11.6
2003-08-20 07:28:20 51°11.31 2°45.66 246.9 13.3 243 11.6
2003-08-20 07:28:24 51°11.3 2°45.64 246.8 13.4 244 11.6
2003-08-20 07:28:30 51°11.29 2°45.61 246.7 13.3 244 11.6
2003-08-20 07:28:34 51°11.29 2°45.59 246.7 13.3 244 11.6
2003-08-20 07:28:40 51°11.28 2°45.55 246.7 13.4 244 11.6
2003-08-20 07:28:44 51°11.27 2°45.53 246.9 13.4 244 11.5
2003-08-20 07:28:50 51°11.26 2°45.5 246.9 13.4 244 11.5
2003-08-20 07:28:54 51°11.26 2°45.48 247.7 13.3 245 11.5
2003-08-20 07:29:00 51°11.25 2°45.45 247.4 13.4 244 11.5
2003-08-20 07:29:04 51°11.24 2°45.43 247.4 13.4 245 11.5
2003-08-20 07:29:10 51°11.23 2°45.39 247.5 13.3 244 11.5
2003-08-20 07:29:14 51°11.22 2°45.37 247.2 13.4 244 11.4
2003-08-20 07:29:20 51°11.21 2°45.34 247.6 13.3 245 11.4
2003-08-20 07:29:26 51°11.2 2°45.31 247.3 13.2 244 11.4
2003-08-20 07:29:30 51°11.2 2°45.29 247.2 13.3 245 11.4
2003-08-20 07:29:34 51°11.19 2°45.27 246.7 13.4 243 11.3
2003-08-20 07:29:40 51°11.18 2°45.23 247.2 13.3 245 11.2
2003-08-20 07:29:44 51°11.18 2°45.21 246.7 13.3 244 11.3
2003-08-20 07:29:50 51°11.17 2°45.18 246.7 13.4 244 11.3
2003-08-20 07:29:54 51°11.16 2°45.16 246.9 13.4 244 11.3
2003-08-20 07:30:00 51°11.15 2°45.13 247.2 13.3 244 11.2
2003-08-20 07:30:04 51°11.14 2°45.11 247 13.4 244 11.3
2003-08-20 07:30:10 51°11.13 2°45.08 246.8 13.3 244 11.3
2003-08-20 07:30:14 51°11.13 2°45.06 246.7 13.3 244 11.3
2003-08-20 07:30:20 51°11.12 2°45.02 246.5 13.3 244 11.3
2003-08-20 07:30:26 51°11.11 2°44.99 246.5 13.4 245 11.3
2003-08-20 07:30:30 51°11.1 2°44.97 247.4 13.4 245 11.2
2003-08-20 07:30:34 51°11.1 2°44.95 247.4 13.3 244 11.3
2003-08-20 07:30:40 51°11.09 2°44.92 247.2 13.3 244 11.2
2003-08-20 07:30:44 51°11.08 2°44.9 247.2 13.3 245 11.2
2003-08-20 07:30:50 51°11.07 2°44.86 247.1 13.3 244 11.2
2003-08-20 07:30:54 51°11.06 2°44.84 247 13.4 245 11.2
2003-08-20 07:31:00 51°11.05 2°44.81 246.8 13.4 244 11.2
2003-08-20 07:31:06 51°11.04 2°44.78 247 13.3 244 11.1
2003-08-20 07:31:10 51°11.04 2°44.76 247.1 13.3 245 11.1
2003-08-20 07:31:14 51°11.03 2°44.74 247.5 13.3 245 11.1
2003-08-20 07:31:20 51°11.02 2°44.71 247.5 13.3 244 9.3
2003-08-20 07:31:26 51°11.01 2°44.67 247.5 13.3 245 11.1
2003-08-20 07:31:30 51°11.01 2°44.65 247.3 13.3 244 11.1
2003-08-20 07:31:34 51°11 2°44.63 247.1 13.3 245 11.1
2003-08-20 07:31:40 51°10.99 2°44.6 247.2 13.3 244 11
2003-08-20 07:31:46 51°10.98 2°44.57 247.5 13.4 245 11
2003-08-20 07:31:50 51°10.97 2°44.55 247.5 13.4 245 11
2003-08-20 07:31:54 51°10.97 2°44.52 248.1 13.4 246 11
2003-08-20 07:32:00 51°10.96 2°44.49 248.2 13.3 245 10.9
2003-08-20 07:32:06 51°10.95 2°44.46 247.6 13.4 245 10.9
2003-08-20 07:32:10 51°10.94 2°44.44 247.5 13.4 245 11
2003-08-20 07:32:14 51°10.94 2°44.42 247.8 13.4 246 10.9
2003-08-20 07:32:20 51°10.93 2°44.38 249.6 13.4 248 10.9
2003-08-20 07:32:24 51°10.92 2°44.36 251.1 13.4 249 10.9
2003-08-20 07:32:30 51°10.92 2°44.33 252.9 13.4 251 11
2003-08-20 07:32:34 51°10.91 2°44.31 253.5 13.4 251 11
2003-08-20 07:32:40 51°10.9 2°44.27 254.2 13.4 251 11
2003-08-20 07:32:44 51°10.9 2°44.25 254.5 13.3 252 10.9
2003-08-20 07:32:50 51°10.89 2°44.22 254.4 13.4 251 11
2003-08-20 07:32:54 51°10.89 2°44.19 254.2 13.4 251 10.8
2003-08-20 07:33:00 51°10.88 2°44.16 254.1 13.4 251 11
2003-08-20 07:33:04 51°10.87 2°44.14 253.7 13.4 251 11
2003-08-20 07:33:10 51°10.87 2°44.1 253.4 13.4 251 10.9
2003-08-20 07:33:14 51°10.86 2°44.08 253.1 13.4 250 10.9
2003-08-20 07:33:20 51°10.86 2°44.05 253.7 13.4 251 11
2003-08-20 07:33:26 51°10.85 2°44.01 253.9 13.3 252 11
2003-08-20 07:33:30 51°10.84 2°43.99 253.8 13.4 251 11
2003-08-20 07:33:34 51°10.84 2°43.97 253.8 13.5 251 11
2003-08-20 07:33:40 51°10.83 2°43.94 254 13.3 251 11
2003-08-20 07:33:44 51°10.83 2°43.91 253.5 13.4 251 10.9
2003-08-20 07:33:50 51°10.82 2°43.88 253.2 13.5 251 10.9
2003-08-20 07:33:54 51°10.81 2°43.86 254.2 13.5 252 10.8
2003-08-20 07:34:00 51°10.81 2°43.82 256.2 13.4 255 11
2003-08-20 07:34:06 51°10.8 2°43.79 257.6 13.4 255 11
2003-08-20 07:34:10 51°10.8 2°43.77 258.6 13.5 257 11
2003-08-20 07:34:14 51°10.8 2°43.74 259.7 13.4 257 11.1
2003-08-20 07:34:20 51°10.79 2°43.71 260.3 13.4 257 11
2003-08-20 07:34:26 51°10.79 2°43.67 260 13.4 257 11.1
2003-08-20 07:34:30 51°10.78 2°43.65 260 13.4 257 11.1
2003-08-20 07:34:34 51°10.78 2°43.63 259.8 13.4 257 11.2
2003-08-20 07:34:40 51°10.77 2°43.59 259.5 13.4 257 11.2
2003-08-20 07:34:44 51°10.77 2°43.57 259.6 13.4 257 11.1
2003-08-20 07:34:50 51°10.77 2°43.54 259.8 13.4 258 11.2
2003-08-20 07:34:54 51°10.76 2°43.51 261.2 13.4 259 11.2
2003-08-20 07:35:00 51°10.76 2°43.48 264.4 13.4 264 11.2
2003-08-20 07:35:06 51°10.76 2°43.44 267.7 13.4 267 11.3
2003-08-20 07:35:10 51°10.76 2°43.42 271.4 13.3 272 11.4
2003-08-20 07:35:14 51°10.76 2°43.39 276.5 13.3 275 11.5
2003-08-20 07:35:20 51°10.77 2°43.36 280.9 13.3 280 11.6
2003-08-20 07:35:24 51°10.77 2°43.34 284.8 13.3 285 11.6
2003-08-20 07:35:30 51°10.78 2°43.3 288.1 13.3 286 11.7
2003-08-20 07:35:34 51°10.78 2°43.28 290.7 13.3 289 11.9
2003-08-20 07:35:40 51°10.79 2°43.25 292.4 13.4 290 12
2003-08-20 07:35:44 51°10.79 2°43.22 293.6 13.4 291 12.2
2003-08-20 07:35:50 51°10.8 2°43.19 294.1 13.5 291 12.2
2003-08-20 07:35:54 51°10.81 2°43.17 294.5 13.5 292 12.4
2003-08-20 07:36:00 51°10.82 2°43.14 294.9 13.5 292 12.4
2003-08-20 07:36:04 51°10.82 2°43.11 295.1 13.5 292 12.6
2003-08-20 07:36:10 51°10.83 2°43.08 294.9 13.5 291 12.6
2003-08-20 07:36:14 51°10.84 2°43.06 294.6 13.5 291 12.7
2003-08-20 07:36:20 51°10.84 2°43.03 294.4 13.5 291 12.8
2003-08-20 07:36:26 51°10.85 2°42.99 293.9 13.5 290 12.9
2003-08-20 07:36:30 51°10.86 2°42.97 293.2 13.5 290 13
2003-08-20 07:36:34 51°10.86 2°42.95 292.7 13.5 290 13
2003-08-20 07:36:40 51°10.87 2°42.91 292.6 13.5 290 13.1
2003-08-20 07:36:44 51°10.87 2°42.89 292.6 13.5 290 13
2003-08-20 07:36:50 51°10.88 2°42.86 292.9 13.5 290 13.2
2003-08-20 07:36:54 51°10.89 2°42.84 292.8 13.4 289 13.2
2003-08-20 07:37:00 51°10.89 2°42.8 292.4 13.5 290 13.3
2003-08-20 07:37:04 51°10.9 2°42.78 291.5 13.4 287 13.4
2003-08-20 07:37:10 51°10.91 2°42.75 290.8 13.5 288 13.5
2003-08-20 07:37:14 51°10.91 2°42.72 290.3 13.4 287 13.3
2003-08-20 07:37:20 51°10.92 2°42.69 289.6 13.5 287 13.5
2003-08-20 07:37:26 51°10.92 2°42.65 289.4 13.4 287 13.6
2003-08-20 07:37:30 51°10.93 2°42.63 289.1 13.4 286 13.7
2003-08-20 07:37:34 51°10.93 2°42.61 289.1 13.5 287 13.7
2003-08-20 07:37:40 51°10.94 2°42.58 289.3 13.4 286 13.7
2003-08-20 07:37:44 51°10.94 2°42.55 288.9 13.4 286 13.7
2003-08-20 07:37:50 51°10.95 2°42.52 288.5 13.4 285 13.7
2003-08-20 07:37:54 51°10.95 2°42.49 288.2 13.4 285 13.8
2003-08-20 07:38:00 51°10.96 2°42.46 288 13.4 285 13.7
2003-08-20 07:38:06 51°10.96 2°42.43 288.1 13.4 285 13.6
2003-08-20 07:38:10 51°10.97 2°42.4 288 13.3 285 13.8
2003-08-20 07:38:14 51°10.97 2°42.38 288 13.3 285 13.9
2003-08-20 07:38:20 51°10.98 2°42.35 288.1 13.4 285 13.8
2003-08-20 07:38:26 51°10.98 2°42.31 288 13.3 285 13.9
2003-08-20 07:38:30 51°10.98 2°42.29 287.5 13.3 285 13.7
2003-08-20 07:38:34 51°10.99 2°42.27 287.4 13.3 285 13.8
2003-08-20 07:38:40 51°10.99 2°42.23 287.9 13.4 285 13.7
2003-08-20 07:38:46 51°11 2°42.2 288.4 13.3 286 13.6
2003-08-20 07:38:50 51°11 2°42.18 288.5 13.3 286 13.7
2003-08-20 07:38:54 51°11.01 2°42.15 288.3 13.3 285 13.7
2003-08-20 07:39:00 51°11.01 2°42.12 287.8 13.3 285 13.7
2003-08-20 07:39:04 51°11.02 2°42.1 287.2 13.3 284 13.6
2003-08-20 07:39:10 51°11.02 2°42.06 286.4 13.3 283 13.4
2003-08-20 07:39:14 51°11.03 2°42.04 285.4 13.2 283 13.5
2003-08-20 07:39:20 51°11.03 2°42.01 282 13.2 277 13.5
2003-08-20 07:39:24 51°11.03 2°41.98 278.1 13.1 273 13.5
2003-08-20 07:39:30 51°11.03 2°41.95 274.3 13 270 13.3
2003-08-20 07:39:34 51°11.03 2°41.92 269.2 13 265 13.5
2003-08-20 07:39:40 51°11.03 2°41.89 265.6 12.9 261 13.5
2003-08-20 07:39:46 51°11.02 2°41.86 261.1 12.9 256 13.4
2003-08-20 07:39:50 51°11.02 2°41.84 258.3 12.9 255 13.4
2003-08-20 07:39:54 51°11.01 2°41.82 253.9 12.8 249 13.4
2003-08-20 07:40:00 51°11 2°41.78 250.1 12.8 245 13.5
2003-08-20 07:40:06 51°10.99 2°41.75 245.8 12.8 241 13.4
2003-08-20 07:40:10 51°10.98 2°41.74 243.1 12.9 239 13.3
2003-08-20 07:40:14 51°10.98 2°41.72 241.3 12.9 238 13.5
2003-08-20 07:40:20 51°10.97 2°41.69 240 12.9 236 13.5
2003-08-20 07:40:26 51°10.95 2°41.66 238 12.9 234 13.6
2003-08-20 07:40:30 51°10.94 2°41.64 236.2 13 232 13.5
2003-08-20 07:40:34 51°10.94 2°41.62 235.2 13 232 13.6
2003-08-20 07:40:40 51°10.92 2°41.6 234.6 13 232 13.6
2003-08-20 07:40:44 51°10.91 2°41.58 233.6 13.1 230 13.6
2003-08-20 07:40:50 51°10.9 2°41.55 233.3 13.1 230 13.6
2003-08-20 07:40:54 51°10.89 2°41.53 232.9 13 230 13.6
2003-08-20 07:41:00 51°10.87 2°41.51 232 13.2 229 13.6
2003-08-20 07:41:06 51°10.86 2°41.48 233 13.2 232 13.6
2003-08-20 07:41:10 51°10.85 2°41.46 233.6 13.1 230 13.6
2003-08-20 07:41:14 51°10.84 2°41.45 232.9 13.1 230 13.7
2003-08-20 07:41:20 51°10.83 2°41.42 233 13.3 230 13.6
2003-08-20 07:41:26 51°10.81 2°41.39 233.8 13.2 231 13.6
2003-08-20 07:41:30 51°10.81 2°41.37 233.8 13.1 231 13.7
2003-08-20 07:41:34 51°10.8 2°41.36 233.7 13.1 231 13.6
2003-08-20 07:41:40 51°10.78 2°41.33 233.3 13.3 230 13.6
2003-08-20 07:41:44 51°10.77 2°41.31 233.5 13.2 232 13.7
2003-08-20 07:41:50 51°10.76 2°41.28 234.1 13.1 231 13.6
2003-08-20 07:41:54 51°10.75 2°41.26 233.7 13.3 231 13.6
2003-08-20 07:42:00 51°10.74 2°41.24 234.2 13.2 232 13.4
2003-08-20 07:42:06 51°10.72 2°41.21 234.4 13.1 230 13.6
2003-08-20 07:42:10 51°10.71 2°41.19 233.2 13.2 230 13.7
2003-08-20 07:42:14 51°10.7 2°41.17 233.2 13.2 231 13.6
2003-08-20 07:42:20 51°10.69 2°41.15 233.2 13.2 229 13.6
2003-08-20 07:42:26 51°10.68 2°41.12 232.5 13.3 230 13.7
2003-08-20 07:42:30 51°10.67 2°41.1 232.5 13.2 229 13.6
2003-08-20 07:42:34 51°10.66 2°41.09 231.6 13.2 228 13.7
2003-08-20 07:42:40 51°10.64 2°41.06 231.6 13.2 229 13.5
2003-08-20 07:42:46 51°10.63 2°41.03 231.7 13.3 229 13.5
2003-08-20 07:42:50 51°10.62 2°41.01 232.2 13.2 230 13.6
2003-08-20 07:42:54 51°10.61 2°41 232.3 13.2 230 13.6
2003-08-20 07:43:00 51°10.59 2°40.97 232.3 13.4 230 13.6
2003-08-20 07:43:06 51°10.58 2°40.94 233.4 13.2 231 13.5
2003-08-20 07:43:10 51°10.57 2°40.92 233 13.2 230 13.5
2003-08-20 07:43:14 51°10.56 2°40.91 232.6 13.3 230 13.6
2003-08-20 07:43:20 51°10.55 2°40.88 232.7 13.3 230 13.5
2003-08-20 07:43:26 51°10.53 2°40.85 232.3 13.2 230 13.6
2003-08-20 07:43:30 51°10.52 2°40.84 231.8 13.2 228 13.5
2003-08-20 07:43:34 51°10.51 2°40.82 230.8 13.3 228 13.5
2003-08-20 07:43:40 51°10.5 2°40.79 231.2 13.3 229 13.6
2003-08-20 07:43:44 51°10.49 2°40.77 231.7 13.3 230 13.5
2003-08-20 07:43:50 51°10.47 2°40.75 232.2 13.4 230 13.5
2003-08-20 07:43:54 51°10.46 2°40.73 232.4 13.3 230 13.5
2003-08-20 07:44:00 51°10.45 2°40.7 232.4 13.2 229 13.5
2003-08-20 07:44:04 51°10.44 2°40.68 231.6 13.3 230 13.5
2003-08-20 07:44:10 51°10.43 2°40.66 231.9 13.2 230 13.4
2003-08-20 07:44:14 51°10.42 2°40.64 231.4 13.3 228 13.4
2003-08-20 07:44:20 51°10.4 2°40.61 231.4 13.3 230 13.4
2003-08-20 07:44:26 51°10.39 2°40.59 231.9 13.2 229 13.3
2003-08-20 07:44:30 51°10.38 2°40.57 231.7 13.2 230 13.4
2003-08-20 07:44:34 51°10.37 2°40.55 231.8 13.3 229 13.3
2003-08-20 07:44:40 51°10.35 2°40.52 231.4 13.4 230 13.3
2003-08-20 07:44:44 51°10.34 2°40.51 231.6 13.2 229 13.3
2003-08-20 07:44:50 51°10.33 2°40.48 231.4 13.3 229 13.2
2003-08-20 07:44:54 51°10.32 2°40.46 232.2 13.3 230 13.2
2003-08-20 07:45:00 51°10.31 2°40.44 232.7 13.3 229 13.1
2003-08-20 07:45:06 51°10.29 2°40.41 232.5 13.4 230 13.1
2003-08-20 07:45:10 51°10.28 2°40.39 232.4 13.4 229 13
2003-08-20 07:45:14 51°10.27 2°40.37 232.3 13.3 230 13
2003-08-20 07:45:20 51°10.26 2°40.35 231.5 13.4 228 13
2003-08-20 07:45:26 51°10.24 2°40.32 231.5 13.4 230 13.1
2003-08-20 07:45:30 51°10.23 2°40.3 231.7 13.4 228 13.1
2003-08-20 07:45:34 51°10.22 2°40.28 231.5 13.4 230 13
2003-08-20 07:45:40 51°10.21 2°40.26 231.7 13.3 228 12.9
2003-08-20 07:45:46 51°10.2 2°40.23 231.6 13.3 230 12.8
2003-08-20 07:45:50 51°10.19 2°40.21 232.1 13.3 229 12.9
2003-08-20 07:45:54 51°10.18 2°40.19 231.9 13.3 229 12.8
2003-08-20 07:46:00 51°10.16 2°40.17 232.1 13.4 229 12.7
2003-08-20 07:46:06 51°10.15 2°40.14 231.6 13.4 230 12.8
2003-08-20 07:46:10 51°10.14 2°40.12 232.5 13.3 230 12.6
2003-08-20 07:46:14 51°10.13 2°40.1 232.6 13.3 229 12.6
2003-08-20 07:46:20 51°10.11 2°40.08 232.6 13.4 230 12.5
2003-08-20 07:46:26 51°10.1 2°40.05 232.5 13.4 229 12.5
2003-08-20 07:46:30 51°10.09 2°40.03 232 13.5 229 12.5
2003-08-20 07:46:34 51°10.08 2°40.02 231.6 13.5 229 12.4
2003-08-20 07:46:40 51°10.06 2°39.99 231.5 13.5 229 12.3
2003-08-20 07:46:44 51°10.05 2°39.97 231.9 13.5 229 12.3
2003-08-20 07:46:50 51°10.04 2°39.94 232.2 13.5 230 12.3
2003-08-20 07:46:54 51°10.03 2°39.92 233.1 13.5 231 12.2
2003-08-20 07:47:00 51°10.02 2°39.9 233.1 13.4 230 12.2
2003-08-20 07:47:04 51°10.01 2°39.88 232.6 13.6 230 12
2003-08-20 07:47:10 51°9.99 2°39.85 232.9 13.5 231 12.1
2003-08-20 07:47:14 51°9.98 2°39.83 233.1 13.4 230 12
2003-08-20 07:47:20 51°9.97 2°39.81 232.6 13.5 230 12.1
2003-08-20 07:47:26 51°9.95 2°39.78 232.9 13.5 230 11.9
2003-08-20 07:47:30 51°9.94 2°39.76 232.8 13.5 230 12
2003-08-20 07:47:34 51°9.93 2°39.74 233.5 13.5 231 11.9
2003-08-20 07:47:40 51°9.92 2°39.71 235 13.4 233 11.8
2003-08-20 07:47:44 51°9.91 2°39.69 236 13.5 234 11.8
2003-08-20 07:47:50 51°9.9 2°39.67 237.1 13.4 235 11.8
2003-08-20 07:47:54 51°9.89 2°39.65 237.5 13.4 234 11.8
2003-08-20 07:48:00 51°9.88 2°39.62 238 13.5 235 11.8
2003-08-20 07:48:04 51°9.87 2°39.6 238 13.5 235 11.4
2003-08-20 07:48:10 51°9.86 2°39.57 237.7 13.4 234 11.7
2003-08-20 07:48:14 51°9.85 2°39.55 237.2 13.4 234 11.7
2003-08-20 07:48:20 51°9.83 2°39.52 236.7 13.4 234 11.7
2003-08-20 07:48:26 51°9.82 2°39.49 237 13.5 238 11.7
2003-08-20 07:48:30 51°9.82 2°39.47 240.9 13.4 241 11.7
2003-08-20 07:48:34 51°9.81 2°39.45 244.5 13.4 242 11.7
2003-08-20 07:48:40 51°9.8 2°39.42 248 13.4 247 11.5
2003-08-20 07:48:44 51°9.79 2°39.4 250.9 13.4 250 11.6
2003-08-20 07:48:50 51°9.79 2°39.36 253.2 13.3 251 11.7
2003-08-20 07:48:54 51°9.78 2°39.34 254 13.3 251 11.8
2003-08-20 07:49:00 51°9.78 2°39.3 256.9 13.4 256 11.8
2003-08-20 07:49:06 51°9.77 2°39.27 260.9 13.4 260 11.9
2003-08-20 07:49:10 51°9.77 2°39.25 264.2 13.3 263 11.8
2003-08-20 07:49:14 51°9.77 2°39.22 267.2 13.3 265 11.9
2003-08-20 07:49:20 51°9.77 2°39.19 270.7 13.4 270 11.9
2003-08-20 07:49:26 51°9.77 2°39.15 275.1 13.3 275 12
2003-08-20 07:49:30 51°9.77 2°39.13 279.1 13.3 278 12
2003-08-20 07:49:34 51°9.78 2°39.11 282.6 13.3 280 12.1
2003-08-20 07:49:40 51°9.78 2°39.07 284.9 13.4 282 12.2
2003-08-20 07:49:46 51°9.79 2°39.04 286.6 13.4 284 12.3
2003-08-20 07:49:50 51°9.79 2°39.01 288.7 13.4 286 12.4
2003-08-20 07:49:54 51°9.8 2°38.99 292.5 13.4 291 12.5
2003-08-20 07:50:00 51°9.8 2°38.96 296.1 13.5 293 12.7
2003-08-20 07:50:06 51°9.81 2°38.93 298.9 13.5 296 12.8
2003-08-20 07:50:10 51°9.82 2°38.91 300.7 13.5 297 12.9
2003-08-20 07:50:14 51°9.83 2°38.89 302.4 13.5 299 13.1
2003-08-20 07:50:20 51°9.84 2°38.85 303.5 13.5 300 13.2
2003-08-20 07:50:24 51°9.85 2°38.83 305.3 13.6 302 13.5
2003-08-20 07:50:30 51°9.86 2°38.8 305.9 13.6 301 13.6
2003-08-20 07:50:34 51°9.87 2°38.78 306.5 13.6 302 13.8
2003-08-20 07:50:40 51°9.88 2°38.75 306.9 13.6 302 14
2003-08-20 07:50:44 51°9.89 2°38.73 307 13.6 303 14.2
2003-08-20 07:50:50 51°9.9 2°38.7 307 13.7 303 14.4
2003-08-20 07:50:54 51°9.91 2°38.68 307.1 13.7 303 14.7
2003-08-20 07:51:00 51°9.92 2°38.65 307 13.7 303 14.9
2003-08-20 07:51:04 51°9.93 2°38.63 306.8 13.7 303 15
2003-08-20 07:51:10 51°9.94 2°38.6 306.2 13.8 303 15.2
2003-08-20 07:51:14 51°9.95 2°38.58 306.6 13.7 303 15.5
2003-08-20 07:51:20 51°9.96 2°38.55 307.7 13.8 305 15.7
2003-08-20 07:51:26 51°9.98 2°38.52 308 13.8 305 15.9
2003-08-20 07:51:30 51°9.99 2°38.5 308.6 13.8 306 16.1
2003-08-20 07:51:34 51°9.99 2°38.48 308.9 13.8 305 16.2
2003-08-20 07:51:40 51°10.01 2°38.45 308.9 13.8 306 16.4
2003-08-20 07:51:44 51°10.02 2°38.43 309 13.8 305 16.5
2003-08-20 07:51:50 51°10.03 2°38.4 308.9 13.8 305 16.5
2003-08-20 07:51:54 51°10.04 2°38.38 308.7 13.7 305 17
2003-08-20 07:52:00 51°10.05 2°38.35 308.1 13.7 304 17.1
2003-08-20 07:52:04 51°10.06 2°38.33 306 13.6 301 17.2
2003-08-20 07:52:10 51°10.07 2°38.3 303.9 13.5 299 17.2
2003-08-20 07:52:14 51°10.08 2°38.28 300.9 13.4 297 17.3
2003-08-20 07:52:20 51°10.08 2°38.25 295.9 13.3 289 17.4
2003-08-20 07:52:26 51°10.09 2°38.21 291.7 13.2 286 17.4
2003-08-20 07:52:30 51°10.09 2°38.19 288.4 13.2 282 17.5
2003-08-20 07:52:34 51°10.1 2°38.17 285.4 13.2 281 17.6
2003-08-20 07:52:40 51°10.1 2°38.13 280.9 13.1 274 17.6
2003-08-20 07:52:44 51°10.1 2°38.11 276.1 13.1 270 17.6
2003-08-20 07:52:50 51°10.1 2°38.07 272.3 13.1 267 17.6
2003-08-20 07:52:54 51°10.1 2°38.05 269.1 13.1 264 17.7
2003-08-20 07:53:00 51°10.09 2°38.02 265.6 13.1 260 17.8
2003-08-20 07:53:06 51°10.09 2°37.98 261 13.1 254 17.7
2003-08-20 07:53:10 51°10.08 2°37.96 256.1 13.2 251 17.8
2003-08-20 07:53:14 51°10.08 2°37.94 252.6 13.2 249 17.8
2003-08-20 07:53:20 51°10.07 2°37.91 249.6 13.2 245 17.9
2003-08-20 07:53:26 51°10.06 2°37.88 247.5 13.3 244 17.9
2003-08-20 07:53:30 51°10.05 2°37.86 246.7 13.3 243 17.9
2003-08-20 07:53:34 51°10.04 2°37.83 245.5 13.3 242 18
2003-08-20 07:53:40 51°10.03 2°37.8 244.6 13.4 241 17.9
2003-08-20 07:53:46 51°10.02 2°37.77 243.1 13.4 239 18
2003-08-20 07:53:50 51°10.01 2°37.75 241.8 13.4 238 17.9
2003-08-20 07:53:54 51°10 2°37.73 240.4 13.4 237 17.9
2003-08-20 07:54:00 51°9.99 2°37.7 239.5 13.4 236 17.9
2003-08-20 07:54:06 51°9.98 2°37.68 239 13.4 235 17.9
2003-08-20 07:54:10 51°9.97 2°37.66 238.8 13.4 236 17.9
2003-08-20 07:54:14 51°9.96 2°37.64 238.7 13.4 235 17.9
2003-08-20 07:54:20 51°9.95 2°37.61 238 13.4 235 17.9
2003-08-20 07:54:24 51°9.94 2°37.59 238 13.5 234 17.8
2003-08-20 07:54:30 51°9.93 2°37.56 237.3 13.5 235 17.8
2003-08-20 07:54:34 51°9.92 2°37.54 237.8 13.4 235 17.7
2003-08-20 07:54:40 51°9.91 2°37.51 237.1 13.4 234 17.8
2003-08-20 07:54:44 51°9.9 2°37.49 235.5 13.4 231 17.7
2003-08-20 07:54:50 51°9.88 2°37.46 234 13.4 231 17.8
2003-08-20 07:54:54 51°9.87 2°37.45 233.6 13.4 230 17.7
2003-08-20 07:55:00 51°9.86 2°37.42 233.3 13.4 230 17.6
2003-08-20 07:55:04 51°9.85 2°37.4 233.2 13.4 230 17.6
2003-08-20 07:55:10 51°9.83 2°37.37 232.6 13.5 229 17.6
2003-08-20 07:55:14 51°9.83 2°37.36 233 13.5 231 17.6
2003-08-20 07:55:20 51°9.81 2°37.33 233.1 13.4 229 17.6
2003-08-20 07:55:26 51°9.8 2°37.3 232.9 13.5 231 17.5
2003-08-20 07:55:30 51°9.79 2°37.28 233.2 13.4 230 17.5
2003-08-20 07:55:34 51°9.78 2°37.26 232.9 13.5 230 17.5
2003-08-20 07:55:40 51°9.76 2°37.24 233 13.5 230 17.4
2003-08-20 07:55:44 51°9.75 2°37.22 233 13.4 230 17.4
2003-08-20 07:55:50 51°9.74 2°37.19 233.1 13.4 231 17.4
2003-08-20 07:55:54 51°9.73 2°37.17 233 13.5 230 17.2
2003-08-20 07:56:00 51°9.72 2°37.15 233.2 13.5 231 17.1
2003-08-20 07:56:06 51°9.7 2°37.12 233.3 13.4 230 17.1
2003-08-20 07:56:10 51°9.69 2°37.1 233.2 13.4 231 17.1
2003-08-20 07:56:14 51°9.68 2°37.08 233.3 13.4 230 17
2003-08-20 07:56:20 51°9.67 2°37.05 233.2 13.4 231 17
2003-08-20 07:56:26 51°9.65 2°37.03 233.4 13.4 230 16.9
2003-08-20 07:56:30 51°9.64 2°37.01 233.2 13.4 230 16.8
2003-08-20 07:56:34 51°9.63 2°36.99 233.6 13.4 230 16.8
2003-08-20 07:56:40 51°9.62 2°36.96 233.7 13.5 230 16.8
2003-08-20 07:56:46 51°9.61 2°36.94 233.7 13.4 231 16.6
2003-08-20 07:56:50 51°9.6 2°36.92 234 13.4 231 16.7
2003-08-20 07:56:54 51°9.59 2°36.9 234.2 13.4 232 16.7
2003-08-20 07:57:00 51°9.57 2°36.87 234.6 13.4 232 16.6
2003-08-20 07:57:06 51°9.56 2°36.84 235 13.4 231 16.6
2003-08-20 07:57:10 51°9.55 2°36.82 234.4 13.4 231 16.6
2003-08-20 07:57:14 51°9.54 2°36.81 234.3 13.5 231 16.3
2003-08-20 07:57:20 51°9.53 2°36.78 234.1 13.3 231 16.5
2003-08-20 07:57:26 51°9.51 2°36.75 233.4 13.4 230 16.3
2003-08-20 07:57:30 51°9.5 2°36.73 233.7 13.4 231 16.5
2003-08-20 07:57:34 51°9.49 2°36.71 233.3 13.5 229 16.4
2003-08-20 07:57:40 51°9.48 2°36.69 233.8 13.4 232 16.5
2003-08-20 07:57:44 51°9.47 2°36.67 234.3 13.4 230 16.5
2003-08-20 07:57:50 51°9.46 2°36.64 234.1 13.4 231 16.6
2003-08-20 07:57:54 51°9.45 2°36.62 234.1 13.4 231 16.6
2003-08-20 07:58:00 51°9.43 2°36.59 234 13.4 231 16.6
2003-08-20 07:58:04 51°9.42 2°36.58 233.5 13.4 230 16.6
2003-08-20 07:58:10 51°9.41 2°36.55 233.6 13.4 231 16.7
2003-08-20 07:58:14 51°9.4 2°36.53 234.8 13.4 232 16.7
2003-08-20 07:58:20 51°9.39 2°36.5 236.6 13.4 235 16.7
2003-08-20 07:58:26 51°9.37 2°36.47 238.6 13.4 236 16.7
2003-08-20 07:58:30 51°9.37 2°36.45 240.8 13.4 239 16.8
2003-08-20 07:58:34 51°9.36 2°36.43 243.4 13.4 241 16.7
2003-08-20 07:58:40 51°9.35 2°36.4 245.6 13.4 243 16.7
2003-08-20 07:58:44 51°9.34 2°36.38 247.9 13.3 246 16.7
2003-08-20 07:58:50 51°9.33 2°36.35 250.4 13.4 248 16.7
2003-08-20 07:58:54 51°9.33 2°36.32 252.7 13.3 250 16.7
2003-08-20 07:59:00 51°9.32 2°36.29 255.1 13.3 252 16.6
2003-08-20 07:59:06 51°9.32 2°36.26 256.1 13.3 253 16.6
2003-08-20 07:59:10 51°9.31 2°36.23 256 13.4 252 16.7
2003-08-20 07:59:14 51°9.31 2°36.21 256.1 13.4 253 16.7
2003-08-20 07:59:20 51°9.3 2°36.18 256.2 13.4 253 16.6
2003-08-20 07:59:26 51°9.29 2°36.14 256.3 13.5 254 16.6
2003-08-20 07:59:30 51°9.29 2°36.12 257 13.4 254 16.6
2003-08-20 07:59:34 51°9.29 2°36.1 257.3 13.4 254 16.5
2003-08-20 07:59:40 51°9.28 2°36.06 258.3 12.9 256 16.6
2003-08-20 07:59:44 51°9.28 2°36.04 261.2 11.7 260 16.8
2003-08-20 07:59:50 51°9.28 2°36.01 264.3 11.1 262 17
2003-08-20 07:59:54 51°9.28 2°36 268.2 10.4 266 17.1
2003-08-20 08:00:00 51°9.28 2°35.97 271.4 9.6 270 16.8
2003-08-20 08:00:06 51°9.28 2°35.95 276.9 8.8 276 16.8
2003-08-20 08:00:10 51°9.28 2°35.93 281 8.3 278 17.1
2003-08-20 08:00:14 51°9.28 2°35.92 284.9 7.9 282 17
2003-08-20 08:00:20 51°9.28 2°35.9 288.3 7.3 286 16.7
2003-08-20 08:00:26 51°9.29 2°35.88 292.6 6.9 290 17.2
2003-08-20 08:00:30 51°9.29 2°35.87 295.9 6.6 292 17.3
2003-08-20 08:00:34 51°9.29 2°35.86 298.3 6.3 294 16.8
2003-08-20 08:00:40 51°9.3 2°35.85 300.6 6 297 17.6
2003-08-20 08:00:46 51°9.3 2°35.84 302.7 5.8 300 17.1
2003-08-20 08:00:50 51°9.31 2°35.83 304.4 5.6 300 17.6
2003-08-20 08:00:54 51°9.31 2°35.82 305.7 5.4 302 17.3
2003-08-20 08:01:00 51°9.31 2°35.81 306.9 5.1 302 17.6
2003-08-20 08:01:04 51°9.32 2°35.8 308 4.9 304 17.7
2003-08-20 08:01:10 51°9.32 2°35.79 309 4.7 305 17.8
2003-08-20 08:01:14 51°9.32 2°35.78 310.1 4.3 306 17.1
2003-08-20 08:01:20 51°9.33 2°35.78 312 3.7 308 17.3
2003-08-20 08:01:24 51°9.33 2°35.77 314.8 3 312 17.4
2003-08-20 08:01:30 51°9.33 2°35.77 318.9 2.6 315 17.4
2003-08-20 08:01:34 51°9.33 2°35.76 324.6 2.1 317 17.5
2003-08-20 08:01:40 51°9.34 2°35.76 329.1 1.7 322 17.5
2003-08-20 08:01:46 51°9.34 2°35.76 335.3 1.6 324 17.6
2003-08-20 08:01:50 51°9.34 2°35.76 339.3 1.5 326 17.6
2003-08-20 08:01:54 51°9.34 2°35.76 342.7 1.5 330 17.6
2003-08-20 08:02:00 51°9.34 2°35.75 345.4 1.5 332 17.5
2003-08-20 08:02:06 51°9.35 2°35.75 347.5 1.5 334 17.6
2003-08-20 08:02:10 51°9.35 2°35.75 349.7 1.4 335 17.6
2003-08-20 08:02:14 51°9.35 2°35.75 351.2 1.4 339 17.7
2003-08-20 08:02:20 51°9.35 2°35.75 352.4 1.4 337 17.7
2003-08-20 08:02:26 51°9.35 2°35.75 354.1 1.3 342 17.7
2003-08-20 08:02:30 51°9.35 2°35.75 355.2 1.3 341 17.7
2003-08-20 08:02:34 51°9.36 2°35.75 356.3 1.3 344 17.7
2003-08-20 08:02:40 51°9.36 2°35.75 357.2 1.3 345 17.7
2003-08-20 08:02:46 51°9.36 2°35.75 358.2 1.2 346 17.6
2003-08-20 08:02:50 51°9.36 2°35.75 359.1 1.2 347 17.5
2003-08-20 08:02:54 51°9.36 2°35.74 0.1 1.2 348 17.4
2003-08-20 08:03:00 51°9.36 2°35.74 1 1.1 350 17.4
2003-08-20 08:03:06 51°9.37 2°35.74 2 1.2 350 17.5
2003-08-20 08:03:10 51°9.37 2°35.74 2.6 1.2 351 17.4
2003-08-20 08:03:14 51°9.37 2°35.74 3.5 1.1 352 17.3
2003-08-20 08:03:20 51°9.37 2°35.74 4.1 1.1 352 17.2
2003-08-20 08:03:24 51°9.37 2°35.74 5 1.1 353 17.3
2003-08-20 08:03:30 51°9.37 2°35.74 5.5 1.1 354 17.1
2003-08-20 08:03:34 51°9.37 2°35.74 6.3 1.1 354 17
2003-08-20 08:03:40 51°9.38 2°35.74 6.7 1 355 17
2003-08-20 08:03:44 51°9.38 2°35.74 7.2 1 354 17.4
2003-08-20 08:03:50 51°9.38 2°35.74 7.6 1 354 17.6
2003-08-20 08:03:54 51°9.38 2°35.74 8.2 1 355 17.6
2003-08-20 08:04:00 51°9.38 2°35.74 8.5 1 356 17.6
2003-08-20 08:04:06 51°9.38 2°35.74 8.9 1 356 17.6
2003-08-20 08:04:10 51°9.38 2°35.74 9.4 0.9 357 17.6
2003-08-20 08:04:14 51°9.39 2°35.74 9.7 0.9 357 17.5
2003-08-20 08:04:20 51°9.39 2°35.74 10.1 0.9 357 17.5
2003-08-20 08:04:24 51°9.39 2°35.74 10.5 0.9 358 17.5
2003-08-20 08:04:30 51°9.39 2°35.74 10.9 0.9 358 17.5
2003-08-20 08:04:34 51°9.39 2°35.74 11.3 0.9 356 17.4
2003-08-20 08:04:40 51°9.39 2°35.74 11.6 0.9 359 17.2
2003-08-20 08:04:46 51°9.39 2°35.74 12 0.8   17
2003-08-20 08:04:50 51°9.39 2°35.74 12.3 0.9   16.9
2003-08-20 08:04:54 51°9.4 2°35.74 12.6 0.9   17
2003-08-20 08:05:00 51°9.4 2°35.74 12.9 0.9 4 17.4
2003-08-20 08:05:06 51°9.4 2°35.74 13.6 1 3 17.7
2003-08-20 08:05:10 51°9.4 2°35.74 14.3 1.1 7 17.7
2003-08-20 08:05:14 51°9.4 2°35.74 15.3 1.3 3 17.6
2003-08-20 08:05:20 51°9.4 2°35.74 16.4 1.4 12 17.4
2003-08-20 08:05:26 51°9.41 2°35.74 17.7 1.5 9 17.4
2003-08-20 08:05:30 51°9.41 2°35.74 19.2 1.5 13 17.1
2003-08-20 08:05:34 51°9.41 2°35.74 20.8 1.6 14 17
2003-08-20 08:05:40 51°9.41 2°35.75 22.2 1.7 16 17.7
2003-08-20 08:05:46 51°9.41 2°35.75 23.9 1.7 15 17.7
2003-08-20 08:05:50 51°9.42 2°35.75 25.4 1.7 18 17.5
2003-08-20 08:05:54 51°9.42 2°35.75 27 1.8 20 17.2
2003-08-20 08:06:00 51°9.42 2°35.75 28.4 1.8 20 18
2003-08-20 08:06:06 51°9.42 2°35.75 29.7 1.9 22 17.7
2003-08-20 08:06:10 51°9.43 2°35.75 30.8 1.9 23 17.4
2003-08-20 08:06:14 51°9.43 2°35.75 31.7 1.9 24 17.5
2003-08-20 08:06:20 51°9.43 2°35.76 32.6 2 25 18
2003-08-20 08:06:24 51°9.43 2°35.76 33.4 2 27 17.7
2003-08-20 08:06:30 51°9.44 2°35.76 34.3 2.1 26 17.4
2003-08-20 08:06:34 51°9.44 2°35.76 34.9 2.1 28 17.5
2003-08-20 08:06:40 51°9.44 2°35.77 35.6 2.1 28 18
2003-08-20 08:06:44 51°9.44 2°35.77 36.2 2.1 29 17.7
2003-08-20 08:06:50 51°9.45 2°35.77 36.9 2.1 30 17.3
2003-08-20 08:06:54 51°9.45 2°35.77 37.5 2.1 31 17.7
2003-08-20 08:07:00 51°9.45 2°35.77 38.2 2.1 32 18
2003-08-20 08:07:06 51°9.45 2°35.78 38.8 2.1 31 17.7
2003-08-20 08:07:10 51°9.46 2°35.78 39.2 2.1 32 17.3
2003-08-20 08:07:14 51°9.46 2°35.78 39.8 2.1 33 18.1
2003-08-20 08:07:20 51°9.46 2°35.78 40.3 2.1 33 18
2003-08-20 08:07:26 51°9.46 2°35.79 40.9 2.1 34 17.6
2003-08-20 08:07:30 51°9.47 2°35.79 41.4 2.1 34 17.3
2003-08-20 08:07:34 51°9.47 2°35.79 42 2.1 34 18.1
2003-08-20 08:07:40 51°9.47 2°35.79 42.6 2.1 35 17.8
2003-08-20 08:07:46 51°9.47 2°35.8 43.1 2.1 37 17.4
2003-08-20 08:07:50 51°9.48 2°35.8 43.7 2.1 37 17.7
2003-08-20 08:07:54 51°9.48 2°35.8 44.3 2.1 37 18
2003-08-20 08:08:00 51°9.48 2°35.81 45.3 2.1 39 17.7
2003-08-20 08:08:04 51°9.48 2°35.81 46.3 2.1 37 17.2
2003-08-20 08:08:10 51°9.48 2°35.81 47.2 2.1 39 18
2003-08-20 08:08:14 51°9.49 2°35.81 48.2 2 41 18
2003-08-20 08:08:20 51°9.49 2°35.82 49.3 2 41 17.7
2003-08-20 08:08:26 51°9.49 2°35.82 50.2 2 42 17.2
2003-08-20 08:08:30 51°9.49 2°35.82 51.4 2 43 17.9
2003-08-20 08:08:34 51°9.49 2°35.83 52.4 2 44 18
2003-08-20 08:08:40 51°9.5 2°35.83 53.6 2 45 17.7
2003-08-20 08:08:46 51°9.5 2°35.83 54.7 1.9 46 17.2
2003-08-20 08:08:50 51°9.5 2°35.84 55.7 1.9 47 17.9
2003-08-20 08:08:54 51°9.5 2°35.84 56.8 1.9 48 18.1
2003-08-20 08:09:00 51°9.5 2°35.84 57.5 1.9 49 17.7
2003-08-20 08:09:04 51°9.5 2°35.84 58.5 1.8 49 17.2
2003-08-20 08:09:10 51°9.51 2°35.85 59.5 1.8 50 17.8
2003-08-20 08:09:14 51°9.51 2°35.85 60.2 1.8 50 18
2003-08-20 08:09:20 51°9.51 2°35.85 61 1.8 52 17.7
2003-08-20 08:09:26 51°9.51 2°35.86 61.9 1.8 53 17.2
2003-08-20 08:09:30 51°9.51 2°35.86 62.8 1.7 54 17.9
2003-08-20 08:09:34 51°9.51 2°35.86 63.5 1.7 54 18
2003-08-20 08:09:40 51°9.52 2°35.87 64.4 1.7 58 17.7
2003-08-20 08:09:46 51°9.52 2°35.87 65.3 1.7 56 17.2
2003-08-20 08:09:50 51°9.52 2°35.87 66 1.7 58 17.9
2003-08-20 08:09:54 51°9.52 2°35.88 66.7 1.7 57 18.1
2003-08-20 08:10:00 51°9.52 2°35.88 67.5 1.7 59 17.8
2003-08-20 08:10:04 51°9.52 2°35.88 68.1 1.7 58 17.4
2003-08-20 08:10:10 51°9.52 2°35.89 68.9 1.6 62 17.8
2003-08-20 08:10:14 51°9.52 2°35.89 69.5 1.6 61 18
2003-08-20 08:10:20 51°9.52 2°35.89 70.4 1.6 63 17.9
2003-08-20 08:10:26 51°9.53 2°35.9 71.2 1.6 64 17.5
2003-08-20 08:10:30 51°9.53 2°35.9 72 1.6 66 17.5
2003-08-20 08:10:34 51°9.53 2°35.9 73 1.6 65 18
2003-08-20 08:10:40 51°9.53 2°35.9 73.8 1.5 66 17.8
2003-08-20 08:10:46 51°9.53 2°35.91 74.4 1.5 66 17.4
2003-08-20 08:10:50 51°9.53 2°35.91 75.3 1.5 67 17.2
2003-08-20 08:10:54 51°9.53 2°35.91 76.1 1.5 67 17.9
2003-08-20 08:11:00 51°9.53 2°35.92 76.9 1.5 69 17.9
2003-08-20 08:11:06 51°9.53 2°35.92 77.5 1.5 68 17.7
2003-08-20 08:11:10 51°9.53 2°35.92 78.3 1.5 71 17.5
2003-08-20 08:11:14 51°9.53 2°35.92 79.1 1.5 71 17.1
2003-08-20 08:11:20 51°9.53 2°35.93 79.8 1.5 72 17.6
2003-08-20 08:11:26 51°9.53 2°35.93 80.6 1.5 73 18
2003-08-20 08:11:30 51°9.54 2°35.93 81.3 1.5 75 17.9
2003-08-20 08:11:34 51°9.54 2°35.94 82 1.5 74 17.6
2003-08-20 08:11:40 51°9.54 2°35.94 82.8 1.4 74 17.2
2003-08-20 08:11:46 51°9.54 2°35.94 83.5 1.4 76 17.4
2003-08-20 08:11:50 51°9.54 2°35.95 84.2 1.4 76 17.9
2003-08-20 08:11:54 51°9.54 2°35.95 85 1.4 78 17.9
2003-08-20 08:12:00 51°9.54 2°35.95 85.8 1.4 79 17.7
2003-08-20 08:12:04 51°9.54 2°35.96 86.6 1.4 80 17.4
2003-08-20 08:12:10 51°9.54 2°35.96 87.5 1.4 81 17.1
2003-08-20 08:12:14 51°9.54 2°35.96 88.5 1.4 84 17.8
2003-08-20 08:12:20 51°9.54 2°35.97 89.3 1.4 83 18
2003-08-20 08:12:26 51°9.54 2°35.97 90.2 1.4 86 17.8
2003-08-20 08:12:30 51°9.54 2°35.97 91.2 1.4 85 17.6
2003-08-20 08:12:34 51°9.54 2°35.97 92.2 1.3 87 17.2
2003-08-20 08:12:40 51°9.54 2°35.98 93.2 1.4 89 17.4
2003-08-20 08:12:46 51°9.54 2°35.98 94.2 1.3 91 17.9
2003-08-20 08:12:50 51°9.54 2°35.98 95.2 1.4 91 17.9
2003-08-20 08:12:54 51°9.54 2°35.99 96.2 1.3 92 17.8
2003-08-20 08:13:00 51°9.54 2°35.99 97.3 1.3 95 17.6
2003-08-20 08:13:04 51°9.54 2°35.99 98.1 1.3 95 17.3
2003-08-20 08:13:10 51°9.54 2°35.99 99.1 1.3 97 17.2
2003-08-20 08:13:14 51°9.54 2°36 100.1 1.4 96 17.8
2003-08-20 08:13:20 51°9.54 2°36 100.9 1.3 98 17.9
2003-08-20 08:13:26 51°9.54 2°36 101.9 1.3 97 17.8
2003-08-20 08:13:30 51°9.54 2°36.01 102.8 1.3 103 17.6
2003-08-20 08:13:34 51°9.54 2°36.01 103.7 1.3 102 17.3
2003-08-20 08:13:40 51°9.54 2°36.01 104.5 1.3 103 17.2
2003-08-20 08:13:44 51°9.54 2°36.01 105.3 1.3 104 17.6
2003-08-20 08:13:50 51°9.54 2°36.02 106.2 1.3 106 17.9
2003-08-20 08:13:54 51°9.54 2°36.02 107 1.3 105 17.9
2003-08-20 08:14:00 51°9.53 2°36.02 107.9 1.3 106 17.7
2003-08-20 08:14:06 51°9.53 2°36.03 108.7 1.3 108 17.6
2003-08-20 08:14:10 51°9.53 2°36.03 109.5 1.3 110 17.4
2003-08-20 08:14:14 51°9.53 2°36.03 110.3 1.3 111 17.1
2003-08-20 08:14:20 51°9.53 2°36.03 111.1 1.3 112 17
2003-08-20 08:14:26 51°9.53 2°36.04 112 1.2 114 17.3
2003-08-20 08:14:30 51°9.53 2°36.04 113 1.3 115 17.6
2003-08-20 08:14:34 51°9.53 2°36.04 113.9 1.3 115 17.7
2003-08-20 08:14:40 51°9.53 2°36.04 114.6 1.3 118 17.8
2003-08-20 08:14:46 51°9.53 2°36.05 115.5 1.2 118 17.7
2003-08-20 08:14:50 51°9.53 2°36.05 116.2 1.3 120 17.6
2003-08-20 08:14:54 51°9.53 2°36.05 117.1 1.2 119 17.5
2003-08-20 08:15:00 51°9.53 2°36.05 117.9 1.3 120 17.3
2003-08-20 08:15:06 51°9.52 2°36.06 118.9 1.3 120 17.1
2003-08-20 08:15:10 51°9.52 2°36.06 119.7 1.2 123 17
2003-08-20 08:15:14 51°9.52 2°36.06 120.2 1.3 120 16.9
2003-08-20 08:15:20 51°9.52 2°36.06 121 1.3 125 16.8
2003-08-20 08:15:26 51°9.52 2°36.07 121.9 1.3 123 17
2003-08-20 08:15:30 51°9.52 2°36.07 122.6 1.3 123 17.4
2003-08-20 08:15:34 51°9.52 2°36.07 123.3 1.3 127 17.4
2003-08-20 08:15:40 51°9.52 2°36.07 123.9 1.2 124 17.3
2003-08-20 08:15:46 51°9.52 2°36.07 124.5 1.3 126 17.4
2003-08-20 08:15:50 51°9.52 2°36.08 125.1 1.3 127 17.4
2003-08-20 08:15:54 51°9.52 2°36.08 125.9 1.3 131 17.5
2003-08-20 08:16:00 51°9.51 2°36.08 126.8 1.3 131 17.4
2003-08-20 08:16:04 51°9.51 2°36.08 127.7 1.3 132 17.3
2003-08-20 08:16:10 51°9.51 2°36.08 129 1.3 133 17.2
2003-08-20 08:16:14 51°9.51 2°36.09 130.2 1.3 133 17
2003-08-20 08:16:20 51°9.51 2°36.09 131.5 1.3 135 17
2003-08-20 08:16:26 51°9.51 2°36.09 133.2 1.3 139 17.1
2003-08-20 08:16:30 51°9.51 2°36.09 134.8 1.3 139 17.1
2003-08-20 08:16:34 51°9.5 2°36.09 136.4 1.3 141 17.1
2003-08-20 08:16:40 51°9.5 2°36.1 138.1 1.3 143 17.2
2003-08-20 08:16:46 51°9.5 2°36.1 140 1.3 145 17.2
2003-08-20 08:16:50 51°9.5 2°36.1 141.8 1.3 147 17.2
2003-08-20 08:16:54 51°9.5 2°36.1 143.7 1.3 148 17.4
2003-08-20 08:17:00 51°9.5 2°36.1 145.8 1.3 152 17.4
2003-08-20 08:17:06 51°9.5 2°36.1 147.7 1.3 152 17.3
2003-08-20 08:17:10 51°9.49 2°36.1 149.6 1.3 154 17.4
2003-08-20 08:17:14 51°9.49 2°36.11 151.8 1.3 156 17.4
2003-08-20 08:17:20 51°9.49 2°36.11 153.8 1.3 159 17.3
2003-08-20 08:17:26 51°9.49 2°36.11 156 1.3 161 17
2003-08-20 08:17:30 51°9.49 2°36.11 158 1.3 164 16.8
2003-08-20 08:17:34 51°9.49 2°36.11 160 1.3 163 16.7
2003-08-20 08:17:40 51°9.48 2°36.11 162 1.3 166 16.8
2003-08-20 08:17:44 51°9.48 2°36.11 164.2 1.3 168 17
2003-08-20 08:17:50 51°9.48 2°36.11 166.3 1.3 170 17.2
2003-08-20 08:17:54 51°9.48 2°36.11 168.4 1.3 171 17.2
2003-08-20 08:18:00 51°9.48 2°36.11 170.5 1.3 174 17.3
2003-08-20 08:18:06 51°9.47 2°36.11 172.7 1.3 176 17.3
2003-08-20 08:18:10 51°9.47 2°36.11 174.7 1.3 177 17.3
2003-08-20 08:18:14 51°9.47 2°36.11 176.8 1.3 179 16.9
2003-08-20 08:18:20 51°9.47 2°36.11 178.5 1.3 180 16.7
2003-08-20 08:18:26 51°9.47 2°36.11 180.9 1.3 182 16.9
2003-08-20 08:18:30 51°9.47 2°36.11 182.9 1.3 184 17.1
2003-08-20 08:18:34 51°9.46 2°36.11 184.9 1.3 185 17.1
2003-08-20 08:18:40 51°9.46 2°36.11 187.1 1.3 188 16.9
2003-08-20 08:18:46 51°9.46 2°36.11 189.1 1.3 192 16.8
2003-08-20 08:18:50 51°9.46 2°36.11 190.8 1.3 193 16.7
2003-08-20 08:18:54 51°9.46 2°36.11 193 1.3 194 16.7
2003-08-20 08:19:00 51°9.46 2°36.11 195.2 1.3 194 17
2003-08-20 08:19:04 51°9.45 2°36.11 197.1 1.3 197 17.1
2003-08-20 08:19:10 51°9.45 2°36.11 199 1.3 201 17.2
2003-08-20 08:19:14 51°9.45 2°36.11 200.9 1.3 200 17.4
2003-08-20 08:19:20 51°9.45 2°36.1 202.8 1.3 202 17.1
2003-08-20 08:19:26 51°9.45 2°36.1 204.8 1.3 206 16.9
2003-08-20 08:19:30 51°9.45 2°36.1 206.2 1.3 207 17.2
2003-08-20 08:19:34 51°9.44 2°36.1 208.1 1.3 208 17.3
2003-08-20 08:19:40 51°9.44 2°36.1 210.5 1.3 208 16.8
2003-08-20 08:19:46 51°9.44 2°36.1 212.4 1.3 211 17
2003-08-20 08:19:50 51°9.44 2°36.1 214.2 1.3 213 17.2
2003-08-20 08:19:54 51°9.44 2°36.1 215.7 1.3 214 17.3
2003-08-20 08:20:00 51°9.44 2°36.09 217.7 1.3 214 17
2003-08-20 08:20:04 51°9.43 2°36.09 219.8 1.3 219 16.6
2003-08-20 08:20:10 51°9.43 2°36.09 221.6 1.3 217 16.9
2003-08-20 08:20:14 51°9.43 2°36.09 223.5 1.3 221 17.1
2003-08-20 08:20:20 51°9.43 2°36.09 225.4 1.3 222 17.3
2003-08-20 08:20:26 51°9.43 2°36.08 227.2 1.3 226 17.1
2003-08-20 08:20:30 51°9.43 2°36.08 229.1 1.3 224 16.7
2003-08-20 08:20:34 51°9.43 2°36.08 230.7 1.3 227 17
2003-08-20 08:20:40 51°9.42 2°36.08 232.9 1.3 230 17.2
2003-08-20 08:20:46 51°9.42 2°36.08 234.7 1.3 228 17.3
2003-08-20 08:20:50 51°9.42 2°36.07 236.7 1.3 232 16.8
2003-08-20 08:20:54 51°9.42 2°36.07 238.7 1.3 233 17
2003-08-20 08:21:00 51°9.42 2°36.07 240 1.3 236 17.2
2003-08-20 08:21:06 51°9.42 2°36.07 242.2 1.3 237 17.1
2003-08-20 08:21:10 51°9.42 2°36.06 243.8 1.3 239 16.7
2003-08-20 08:21:14 51°9.42 2°36.06 246 1.3 238 16.6
2003-08-20 08:21:20 51°9.42 2°36.06 247.5 1.3 239 17.3
2003-08-20 08:21:26 51°9.42 2°36.06 249.8 1.3 243 17.2
2003-08-20 08:21:30 51°9.41 2°36.05 251.5 1.3 244 16.7
2003-08-20 08:21:34 51°9.41 2°36.05 253.5 1.3 245 17
2003-08-20 08:21:40 51°9.41 2°36.05 254.8 1.3 246 17.2
2003-08-20 08:21:44 51°9.41 2°36.05 256.5 1.3 248 17.3
2003-08-20 08:21:50 51°9.41 2°36.04 258.4 1.3 251 16.9
2003-08-20 08:21:54 51°9.41 2°36.04 260.2 1.3 252 16.7
2003-08-20 08:22:00 51°9.41 2°36.04 262 1.3 253 17
2003-08-20 08:22:06 51°9.41 2°36.03 264.1 1.3 255 17.2
2003-08-20 08:22:10 51°9.41 2°36.03 265.7 1.3 254 17.3
2003-08-20 08:22:14 51°9.41 2°36.03 267.3 1.3 259 17.1
2003-08-20 08:22:20 51°9.41 2°36.03 269 1.3 259 16.7
2003-08-20 08:22:26 51°9.41 2°36.02 271 1.3 260 17
2003-08-20 08:22:30 51°9.41 2°36.02 272.8 1.3 261 17.2
2003-08-20 08:22:34 51°9.41 2°36.02 274.3 1.3 262 17.3
2003-08-20 08:22:40 51°9.41 2°36.02 275.9 1.3 263 17.2
2003-08-20 08:22:46 51°9.41 2°36.01 277.8 1.3 266 16.8
2003-08-20 08:22:50 51°9.41 2°36.01 279.4 1.3 268 16.8
2003-08-20 08:22:54 51°9.41 2°36.01 281 1.3 267 17.2
2003-08-20 08:23:00 51°9.41 2°36 282.8 1.3 271 17.3
2003-08-20 08:23:04 51°9.41 2°36 284.5 1.2 274 17.2
2003-08-20 08:23:10 51°9.41 2°36 286.5 1.3 273 16.9
2003-08-20 08:23:14 51°9.41 2°36 288.1 1.3 274 16.8
2003-08-20 08:23:20 51°9.41 2°35.99 289.9 1.3 279 17.1
2003-08-20 08:23:26 51°9.41 2°35.99 291.9 1.6 280 17.3
2003-08-20 08:23:30 51°9.41 2°35.99 294.5 1.9 288 17.5
2003-08-20 08:23:34 51°9.41 2°35.98 297.2 2.6 289 16.9
2003-08-20 08:23:40 51°9.41 2°35.97 300.7 3.5 297 17
2003-08-20 08:23:46 51°9.42 2°35.96 305 4.5 301 17.2
2003-08-20 08:23:50 51°9.42 2°35.96 309.8 5.1 305 17
2003-08-20 08:23:54 51°9.42 2°35.95 314.1 6.1 310 17.1
2003-08-20 08:24:00 51°9.43 2°35.93 316.8 6.6 311 17.4
2003-08-20 08:24:04 51°9.44 2°35.92 318.6 7.4 313 16.6
2003-08-20 08:24:10 51°9.45 2°35.91 319.3 8 313 16.8
2003-08-20 08:24:14 51°9.45 2°35.9 319.3 8.5 313 16.9
2003-08-20 08:24:20 51°9.46 2°35.88 319.1 9.4 313 16.8
2003-08-20 08:24:26 51°9.47 2°35.86 318.9 10.3 314 17.2
2003-08-20 08:24:30 51°9.48 2°35.85 320.8 10.8 317 17.7
2003-08-20 08:24:34 51°9.49 2°35.83 323.4 11.2 318 17.3
2003-08-20 08:24:40 51°9.51 2°35.81 325.1 11.8 320 17.3
2003-08-20 08:24:46 51°9.52 2°35.79 325.6 12.2 320 17.4
2003-08-20 08:24:50 51°9.53 2°35.78 325 12.4 319 17.6
2003-08-20 08:24:54 51°9.54 2°35.77 324.5 12.6 319 18
2003-08-20 08:25:00 51°9.56 2°35.74 324.6 12.8 320 17.3
2003-08-20 08:25:06 51°9.58 2°35.72 325.7 13 322 18.1
2003-08-20 08:25:10 51°9.59 2°35.71 328.3 13 324 18.4
2003-08-20 08:25:14 51°9.6 2°35.7 330.2 13 326 18.2
2003-08-20 08:25:20 51°9.62 2°35.68 333.1 13 329 18.4
2003-08-20 08:25:26 51°9.64 2°35.66 334.3 13.1 329 18.8
2003-08-20 08:25:30 51°9.65 2°35.65 334.5 13.1 330 18.6
2003-08-20 08:25:34 51°9.66 2°35.64 333.8 13.1 328 18.4
2003-08-20 08:25:40 51°9.68 2°35.62 333.6 13.3 329 18.6
2003-08-20 08:25:46 51°9.7 2°35.6 333.2 13.4 328 18.5
2003-08-20 08:25:50 51°9.71 2°35.59 333.1 13.5 328 18.7
2003-08-20 08:25:54 51°9.73 2°35.57 333.7 13.6 329 18.9
2003-08-20 08:26:00 51°9.75 2°35.56 333.8 13.6 329 19.1
2003-08-20 08:26:06 51°9.77 2°35.54 333.8 13.7 328 19
2003-08-20 08:26:10 51°9.78 2°35.52 333.3 13.7 328 18.9
2003-08-20 08:26:14 51°9.79 2°35.51 333.1 13.7 328 18.9
2003-08-20 08:26:20 51°9.81 2°35.49 333.4 13.8 329 19
2003-08-20 08:26:26 51°9.83 2°35.47 334.2 13.8 330 19
2003-08-20 08:26:30 51°9.84 2°35.46 334.5 13.9 330 18.7
2003-08-20 08:26:34 51°9.86 2°35.45 334.6 13.9 330 18.5
2003-08-20 08:26:40 51°9.88 2°35.43 333.9 13.9 328 18.2
2003-08-20 08:26:46 51°9.9 2°35.41 333.7 13.9 329 18.1
2003-08-20 08:26:50 51°9.91 2°35.4 333.7 13.9 329 17.6
2003-08-20 08:26:54 51°9.92 2°35.39 333.9 13.9 329 16.9
2003-08-20 08:27:00 51°9.94 2°35.37 333.8 14 329 16.2
2003-08-20 08:27:04 51°9.96 2°35.35 334 13.9 329 15.5
2003-08-20 08:27:10 51°9.98 2°35.34 333.8 13.9 329 14.8
2003-08-20 08:27:14 51°9.99 2°35.32 333.6 13.9 329 13.8
2003-08-20 08:27:20 51°10.01 2°35.3 333.5 13.8 329 13.1
2003-08-20 08:27:26 51°10.03 2°35.28 333.4 13.8 329 12
2003-08-20 08:27:30 51°10.04 2°35.27 333.8 13.7 329 11.8
2003-08-20 08:27:34 51°10.06 2°35.26 334.1 13.7 330 11.4
2003-08-20 08:27:40 51°10.08 2°35.24 334.5 13.8 330 11.3
2003-08-20 08:27:46 51°10.1 2°35.23 336.2 13.7 334 11.2
2003-08-20 08:27:50 51°10.11 2°35.22 338.8 13.8 336 11.3
2003-08-20 08:27:54 51°10.12 2°35.21 341.9 13.7 338 11.5
2003-08-20 08:28:00 51°10.15 2°35.2 345.3 13.7 342 11.5
2003-08-20 08:28:04 51°10.16 2°35.19 348.8 13.8 347 11.7
2003-08-20 08:28:10 51°10.18 2°35.18 352 13.8 349 11.7
2003-08-20 08:28:14 51°10.2 2°35.18 355.7 13.7 352 11.6
2003-08-20 08:28:20 51°10.22 2°35.18 359.2 13.7 356 11.8
2003-08-20 08:28:26 51°10.24 2°35.18 2.5 13.7   11.8
2003-08-20 08:28:30 51°10.26 2°35.18 6 13.7 3 11.7
2003-08-20 08:28:34 51°10.27 2°35.18 9.8 13.6 6 11.6
2003-08-20 08:28:40 51°10.3 2°35.19 13.9 13.6 11 11.5
2003-08-20 08:28:46 51°10.32 2°35.2 18.2 13.5 17 11.1
2003-08-20 08:28:50 51°10.33 2°35.21 22.7 13.5 20 11.3
2003-08-20 08:28:54 51°10.35 2°35.22 26.9 13.5 23 11.1
2003-08-20 08:29:00 51°10.37 2°35.23 31.4 13.4 29 11
2003-08-20 08:29:06 51°10.38 2°35.25 36 13.3 34 10.7
2003-08-20 08:29:10 51°10.4 2°35.27 40.5 13.2 37 10.7
2003-08-20 08:29:14 51°10.41 2°35.28 44.8 13.3 41 10.4
2003-08-20 08:29:20 51°10.42 2°35.31 46.4 13.3 41 10.5
2003-08-20 08:29:26 51°10.44 2°35.33 48.2 13.3 44 10.5
2003-08-20 08:29:30 51°10.45 2°35.35 50 13.3 45 10.4
2003-08-20 08:29:34 51°10.46 2°35.36 50.4 13.4 45 10.4
2003-08-20 08:29:40 51°10.48 2°35.39 50.1 13.4 44 10.5
2003-08-20 08:29:46 51°10.49 2°35.41 50 13.4 44 10.7
2003-08-20 08:29:50 51°10.5 2°35.43 50 13.5 45 10.5
2003-08-20 08:29:54 51°10.51 2°35.45 50.3 13.5 45 10.6
2003-08-20 08:30:00 51°10.53 2°35.47 51.1 13.5 46 10.5
2003-08-20 08:30:04 51°10.54 2°35.49 51.5 13.5 46 10.6
2003-08-20 08:30:10 51°10.55 2°35.52 52.1 13.6 47 10.7
2003-08-20 08:30:14 51°10.57 2°35.53 52 13.6 46 10.5
2003-08-20 08:30:20 51°10.58 2°35.56 51.3 13.5 46 10.6
2003-08-20 08:30:26 51°10.6 2°35.58 51.3 13.6 45 10.6
2003-08-20 08:30:30 51°10.61 2°35.6 51 13.6 45 10.4
2003-08-20 08:30:34 51°10.62 2°35.62 51 13.6 46 10.4
2003-08-20 08:30:40 51°10.63 2°35.64 51 13.6 45 10.7
2003-08-20 08:30:46 51°10.65 2°35.67 50.4 13.6 46 10.7
2003-08-20 08:30:50 51°10.66 2°35.69 50.7 13.6 46 10.7
2003-08-20 08:30:54 51°10.67 2°35.7 50.8 13.6 46 10.8
2003-08-20 08:31:00 51°10.69 2°35.73 51.5 13.6 46 10.9
2003-08-20 08:31:04 51°10.7 2°35.75 51.5 13.7 46 10.8
2003-08-20 08:31:10 51°10.71 2°35.77 51.1 13.6 46 10.6
2003-08-20 08:31:14 51°10.72 2°35.79 50.9 13.6 46 10.8
2003-08-20 08:31:20 51°10.74 2°35.82 51.3 13.6 46 10.9
2003-08-20 08:31:26 51°10.75 2°35.84 50.9 13.6 45 11
2003-08-20 08:31:30 51°10.77 2°35.86 50.6 13.6 45 11.1
2003-08-20 08:31:34 51°10.78 2°35.88 50.8 13.6 46 11
2003-08-20 08:31:40 51°10.79 2°35.9 50.3 13.6 45 11.2
2003-08-20 08:31:46 51°10.81 2°35.93 50.2 13.5 46 11
2003-08-20 08:31:50 51°10.82 2°35.94 50.6 13.5 45 11.3
2003-08-20 08:31:54 51°10.83 2°35.96 50.8 13.5 46 11.4
2003-08-20 08:32:00 51°10.84 2°35.99 51.1 13.5 46 11.4
2003-08-20 08:32:06 51°10.86 2°36.01 51.6 13.6 46 11.4
2003-08-20 08:32:10 51°10.87 2°36.03 51.7 13.6 46 11.4
2003-08-20 08:32:14 51°10.88 2°36.05 52 13.6 47 11.3
2003-08-20 08:32:20 51°10.9 2°36.07 52.1 13.5 46 11.4
2003-08-20 08:32:26 51°10.91 2°36.1 51.8 13.5 46 11.3
2003-08-20 08:32:30 51°10.92 2°36.12 51.2 13.6 45 11.7
2003-08-20 08:32:34 51°10.93 2°36.13 50.9 13.6 45 11.8
2003-08-20 08:32:40 51°10.95 2°36.16 50.7 13.6 45 11.7
2003-08-20 08:32:46 51°10.96 2°36.19 50.9 13.6 46 11.5
2003-08-20 08:32:50 51°10.98 2°36.2 50.8 13.7 45 11.8
2003-08-20 08:32:54 51°10.99 2°36.22 50.9 13.7 46 11.7
2003-08-20 08:33:00 51°11 2°36.25 51.3 13.6 46 12
2003-08-20 08:33:06 51°11.02 2°36.27 51.8 13.6 48 11.7
2003-08-20 08:33:10 51°11.03 2°36.29 52.2 13.7 46 11.7
2003-08-20 08:33:14 51°11.04 2°36.31 51.6 13.6 47 12.1
2003-08-20 08:33:20 51°11.05 2°36.33 51.8 13.6 47 12.1
2003-08-20 08:33:24 51°11.06 2°36.35 52 13.7 47 12.2
2003-08-20 08:33:30 51°11.08 2°36.38 51.6 13.7 46 12.3
2003-08-20 08:33:34 51°11.09 2°36.39 50.8 13.6 45 12.2
2003-08-20 08:33:40 51°11.11 2°36.42 50.6 13.6 45 12.2
2003-08-20 08:33:46 51°11.12 2°36.45 50.4 13.6 46 12.3
2003-08-20 08:33:50 51°11.13 2°36.46 50.7 13.6 46 12.4
2003-08-20 08:33:54 51°11.14 2°36.48 50.8 13.6 45 12.4
2003-08-20 08:34:00 51°11.16 2°36.51 50.8 13.6 46 12.4
2003-08-20 08:34:06 51°11.17 2°36.53 50.6 13.6 45 12.5
2003-08-20 08:34:10 51°11.18 2°36.55 50.6 13.6 46 12.6
2003-08-20 08:34:14 51°11.19 2°36.57 50.8 13.6 45 12.5
2003-08-20 08:34:20 51°11.21 2°36.59 50.6 13.6 45 12.7
2003-08-20 08:34:24 51°11.22 2°36.61 50.5 13.5 46 12.8
2003-08-20 08:34:30 51°11.24 2°36.63 50.9 13.6 46 12.5
2003-08-20 08:34:34 51°11.25 2°36.65 51.3 13.6 46 12.7
2003-08-20 08:34:40 51°11.26 2°36.68 51.3 13.6 46 12.6
2003-08-20 08:34:46 51°11.28 2°36.7 51.5 13.6 46 12.9
2003-08-20 08:34:50 51°11.29 2°36.72 51.5 13.6 46 13
2003-08-20 08:34:54 51°11.3 2°36.74 51.5 13.6 46 13
2003-08-20 08:35:00 51°11.31 2°36.76 51 13.6 46 12.9
2003-08-20 08:35:04 51°11.33 2°36.78 50.7 13.6 45 12.9
2003-08-20 08:35:10 51°11.34 2°36.81 50.6 13.6 45 13.1
2003-08-20 08:35:14 51°11.35 2°36.82 50.5 13.6 45 13.1
2003-08-20 08:35:20 51°11.37 2°36.85 50.4 13.6 45 13.1
2003-08-20 08:35:26 51°11.38 2°36.87 50.5 13.6 46 13.3
2003-08-20 08:35:30 51°11.39 2°36.89 50.7 13.6 45 13.2
2003-08-20 08:35:34 51°11.4 2°36.91 50.8 13.6 46 13.2
2003-08-20 08:35:40 51°11.42 2°36.93 51 13.6 46 13.4
2003-08-20 08:35:46 51°11.44 2°36.96 51.1 13.7 46 13.4
2003-08-20 08:35:50 51°11.45 2°36.98 51.2 13.6 46 13.5
2003-08-20 08:35:54 51°11.46 2°37 51.2 13.6 46 13.5
2003-08-20 08:36:00 51°11.47 2°37.02 51.2 13.6 46 13.5
2003-08-20 08:36:06 51°11.49 2°37.05 50.8 13.6 45 13.7
2003-08-20 08:36:10 51°11.5 2°37.06 50.6 13.6 46 13.6
2003-08-20 08:36:14 51°11.51 2°37.08 50.7 13.6 46 13.7
2003-08-20 08:36:20 51°11.53 2°37.11 50.7 13.6 45 13.7
2003-08-20 08:36:26 51°11.54 2°37.13 50.7 13.6 45 13.9
2003-08-20 08:36:30 51°11.55 2°37.15 50.6 13.6 45 13.7
2003-08-20 08:36:34 51°11.56 2°37.17 50.3 13.6 45 13.8
2003-08-20 08:36:40 51°11.58 2°37.19 50.3 13.6 45 14
2003-08-20 08:36:46 51°11.59 2°37.22 50.8 13.6 46 13.9
2003-08-20 08:36:50 51°11.61 2°37.24 51.1 13.6 46 14
2003-08-20 08:36:54 51°11.62 2°37.25 51.3 13.5 46 13.8
2003-08-20 08:37:00 51°11.63 2°37.28 51.8 13.6 47 13.8
2003-08-20 08:37:06 51°11.65 2°37.31 51.8 13.6 47 14
2003-08-20 08:37:10 51°11.66 2°37.32 52.1 13.6 47 14
2003-08-20 08:37:14 51°11.67 2°37.34 52.1 13.6 47 13.9
2003-08-20 08:37:20 51°11.68 2°37.37 52.1 13.6 47 14
2003-08-20 08:37:24 51°11.69 2°37.38 51.8 13.6 47 13.8
2003-08-20 08:37:30 51°11.71 2°37.41 51.6 13.6 46 13.9
2003-08-20 08:37:34 51°11.72 2°37.43 51.4 13.6 46 14.1
2003-08-20 08:37:40 51°11.74 2°37.45 51 13.6 46 14.1
2003-08-20 08:37:46 51°11.75 2°37.48 50.9 13.6 46 14.1
2003-08-20 08:37:50 51°11.76 2°37.5 50.7 13.7 45 14.1
2003-08-20 08:37:54 51°11.77 2°37.51 50.8 13.6 46 14
2003-08-20 08:38:00 51°11.79 2°37.54 51.2 13.7 46 14
2003-08-20 08:38:06 51°11.8 2°37.57 51.5 13.6 47 14.1
2003-08-20 08:38:10 51°11.81 2°37.58 51.5 13.6 46 14.1
2003-08-20 08:38:14 51°11.82 2°37.6 51.7 13.6 47 14
2003-08-20 08:38:20 51°11.84 2°37.63 51.9 13.6 46 14.1
2003-08-20 08:38:26 51°11.86 2°37.65 51.5 13.6 47 14.2
2003-08-20 08:38:30 51°11.87 2°37.67 51.5 13.6 46 14.1
2003-08-20 08:38:34 51°11.88 2°37.69 51 13.6 45 14
2003-08-20 08:38:40 51°11.89 2°37.71 50.9 13.6 46 14.1
2003-08-20 08:38:44 51°11.9 2°37.73 50.7 13.6 45 14.1
2003-08-20 08:38:50 51°11.92 2°37.76 50.6 13.6 46 14.1
2003-08-20 08:38:54 51°11.93 2°37.77 51.1 13.6 45 14.2
2003-08-20 08:39:00 51°11.95 2°37.8 51 13.6 46 14.1
2003-08-20 08:39:04 51°11.96 2°37.82 50.8 13.6 45 14.2
2003-08-20 08:39:10 51°11.97 2°37.84 50.8 13.6 46 13.9
2003-08-20 08:39:14 51°11.98 2°37.86 50.9 13.6 46 14.1
2003-08-20 08:39:20 51°12 2°37.89 50.8 13.6 46 14.1
2003-08-20 08:39:26 51°12.01 2°37.91 50.8 13.6 46 14.2
2003-08-20 08:39:30 51°12.02 2°37.93 50.9 13.6 46 14.2
2003-08-20 08:39:34 51°12.04 2°37.95 50.8 13.6 45 14.1
2003-08-20 08:39:40 51°12.05 2°37.97 49.5 13.5 43 14
2003-08-20 08:39:46 51°12.07 2°37.99 46.9 13.5 40 14
2003-08-20 08:39:50 51°12.08 2°38.01 44.4 13.5 37 14.1
2003-08-20 08:39:54 51°12.09 2°38.02 41.4 13.5 35 14.1
2003-08-20 08:40:00 51°12.11 2°38.04 39.2 13.6 33 14.1
2003-08-20 08:40:06 51°12.13 2°38.06 37.4 13.6 31 14.1
2003-08-20 08:40:10 51°12.15 2°38.07 36 13.6 30 14.1
2003-08-20 08:40:14 51°12.16 2°38.08 35.4 13.6 29 14.1
2003-08-20 08:40:20 51°12.18 2°38.1 35 13.6 29 13.9
2003-08-20 08:40:26 51°12.2 2°38.12 33.8 13.6 27 12.3
2003-08-20 08:40:30 51°12.21 2°38.13 32.6 13.6 26 14
2003-08-20 08:40:34 51°12.23 2°38.14 31.6 13.6 25 13.9
2003-08-20 08:40:40 51°12.25 2°38.15 30.5 13.6 24 13.9
2003-08-20 08:40:46 51°12.27 2°38.17 29.5 13.6 23 13.9
2003-08-20 08:40:50 51°12.28 2°38.18 28.3 13.6 22 13.8
2003-08-20 08:40:54 51°12.3 2°38.18 27.5 13.6 22 13.8
2003-08-20 08:41:00 51°12.32 2°38.2 27.3 13.7 21 13.8
2003-08-20 08:41:06 51°12.34 2°38.21 27.2 13.7 22 13.8
2003-08-20 08:41:10 51°12.35 2°38.22 27.4 13.7 22 13.8
2003-08-20 08:41:14 51°12.37 2°38.23 27.6 13.6 22 13.8
2003-08-20 08:41:20 51°12.39 2°38.24 27.8 13.6 22 13.8
2003-08-20 08:41:26 51°12.41 2°38.26 28.2 13.6 22 13.8
2003-08-20 08:41:30 51°12.42 2°38.27 28.2 13.6 22 13.6
2003-08-20 08:41:34 51°12.44 2°38.27 28.2 13.6 22 13.8
2003-08-20 08:41:40 51°12.46 2°38.29 27.3 13.6 20 13.6
2003-08-20 08:41:46 51°12.48 2°38.3 26.1 13.6 20 13.7
2003-08-20 08:41:50 51°12.49 2°38.31 25.5 13.6 19 13.7
2003-08-20 08:41:54 51°12.51 2°38.32 24.8 13.6 19 13.6
2003-08-20 08:42:00 51°12.53 2°38.33 24.6 13.6 19 13.7
2003-08-20 08:42:04 51°12.54 2°38.34 24.7 13.6 19 13.6
2003-08-20 08:42:10 51°12.56 2°38.35 24.8 13.6 19 13.5
2003-08-20 08:42:14 51°12.58 2°38.35 25.3 13.6 20 13.5
2003-08-20 08:42:20 51°12.6 2°38.37 25.5 13.6 20 13.6
2003-08-20 08:42:26 51°12.62 2°38.38 25.9 13.6 20 13.5
2003-08-20 08:42:30 51°12.64 2°38.39 26 13.6 20 13.7
2003-08-20 08:42:34 51°12.65 2°38.4 25.9 13.6 20 13.6
2003-08-20 08:42:40 51°12.67 2°38.41 25.5 13.6 19 13.6
2003-08-20 08:42:46 51°12.69 2°38.42 25.2 13.6 19 13.5
2003-08-20 08:42:50 51°12.71 2°38.43 24.8 13.6 19 13.5
2003-08-20 08:42:54 51°12.72 2°38.44 24.8 13.7 19 13.6
2003-08-20 08:43:00 51°12.74 2°38.45 24.6 13.6 18 13.6
2003-08-20 08:43:06 51°12.76 2°38.46 24.6 13.6 19 13.5
2003-08-20 08:43:10 51°12.78 2°38.47 25 13.6 19 13.5
2003-08-20 08:43:14 51°12.79 2°38.47 25.5 13.6 20 13.7
2003-08-20 08:43:20 51°12.81 2°38.49 25.7 13.6 20 13.4
2003-08-20 08:43:26 51°12.83 2°38.5 25.9 13.6 20 13.6
2003-08-20 08:43:30 51°12.85 2°38.51 25.6 13.6 19 13.7
2003-08-20 08:43:34 51°12.86 2°38.52 25.6 13.6 20 13.8
2003-08-20 08:43:40 51°12.88 2°38.53 25.1 13.7 19 13.8
2003-08-20 08:43:46 51°12.91 2°38.54 25.1 13.6 19 13.9
2003-08-20 08:43:50 51°12.92 2°38.55 25.5 13.6 20 13.9
2003-08-20 08:43:54 51°12.93 2°38.56 25.8 13.6 20 14
2003-08-20 08:44:00 51°12.96 2°38.57 26.1 13.6 20 14
2003-08-20 08:44:06 51°12.98 2°38.58 26.1 13.6 20 14
2003-08-20 08:44:10 51°12.99 2°38.59 26.1 13.6 20 14
2003-08-20 08:44:14 51°13 2°38.6 25.9 13.6 20 14.1
2003-08-20 08:44:20 51°13.03 2°38.61 25.7 13.6 20 14.1
2003-08-20 08:44:26 51°13.05 2°38.62 25.5 13.6 20 14.1
2003-08-20 08:44:30 51°13.06 2°38.63 25.3 13.6 19 14.1
2003-08-20 08:44:34 51°13.08 2°38.64 25.4 13.6 20 14.3
2003-08-20 08:44:40 51°13.1 2°38.65 25.9 13.6 20 14.2
2003-08-20 08:44:46 51°13.12 2°38.66 26.1 13.5 20 14.2
2003-08-20 08:44:50 51°13.13 2°38.67 26.1 13.5 20 14.3
2003-08-20 08:44:54 51°13.15 2°38.68 26.1 13.5 20 14.3
2003-08-20 08:45:00 51°13.17 2°38.69 26 13.5 20 14.4
2003-08-20 08:45:04 51°13.18 2°38.7 25.6 13.5 20 14.4
2003-08-20 08:45:10 51°13.2 2°38.71 25.8 13.5 20 14.4
2003-08-20 08:45:14 51°13.22 2°38.72 25.8 13.5 20 14.4
2003-08-20 08:45:20 51°13.24 2°38.73 25.7 13.5 20 14.3
2003-08-20 08:45:26 51°13.26 2°38.74 25.5 13.5 20 14.1
2003-08-20 08:45:30 51°13.27 2°38.75 25.4 13.5 20 14
2003-08-20 08:45:34 51°13.29 2°38.76 25.9 13.5 20 13.7
2003-08-20 08:45:40 51°13.31 2°38.77 25.8 13.5 19 13.2
2003-08-20 08:45:46 51°13.33 2°38.78 25.7 13.5 19 13.1
2003-08-20 08:45:50 51°13.34 2°38.79 25.7 13.5 20 13.1
2003-08-20 08:45:54 51°13.36 2°38.8 25.7 13.5 19 13.2
2003-08-20 08:46:00 51°13.38 2°38.81 25.7 13.5 20 13.3
2003-08-20 08:46:04 51°13.39 2°38.82 25.9 13.6 20 13.7
2003-08-20 08:46:10 51°13.42 2°38.83 26.1 13.6 20 13.6
2003-08-20 08:46:14 51°13.43 2°38.84 26.5 13.5 20 13.5
2003-08-20 08:46:20 51°13.45 2°38.85 26.6 13.5 21 13.6
2003-08-20 08:46:26 51°13.47 2°38.86 26.8 13.5 20 13.9
2003-08-20 08:46:30 51°13.49 2°38.87 26.8 13.6 20 13.9
2003-08-20 08:46:34 51°13.5 2°38.88 26.8 13.5 20 14
2003-08-20 08:46:40 51°13.52 2°38.89 25.5 13.6 18 14.2
2003-08-20 08:46:46 51°13.54 2°38.9 23.8 13.6 16 14.3
2003-08-20 08:46:50 51°13.56 2°38.91 22.7 13.6 16 14.4
2003-08-20 08:46:54 51°13.57 2°38.92 21.8 13.6 15 14.4
2003-08-20 08:47:00 51°13.59 2°38.92 21.2 13.6 15 14.5
2003-08-20 08:47:06 51°13.62 2°38.93 20.9 13.6 14 14.6
2003-08-20 08:47:10 51°13.63 2°38.94 20.3 13.6 13 14.6
2003-08-20 08:47:14 51°13.65 2°38.94 20.3 13.6 14 14.7
2003-08-20 08:47:20 51°13.67 2°38.95 18.4 13.5 10 14.7
2003-08-20 08:47:26 51°13.69 2°38.96 15.3 13.5 7 14.8
2003-08-20 08:47:30 51°13.71 2°38.96 12.7 13.5 5 14.7
2003-08-20 08:47:34 51°13.72 2°38.96 10.8 13.5 4 14.7
2003-08-20 08:47:40 51°13.74 2°38.96 9.4 13.6 3 14.7
2003-08-20 08:47:46 51°13.77 2°38.96 8.5 13.6 2 14.7
2003-08-20 08:47:50 51°13.78 2°38.96 8.4 13.6 2 14.7
2003-08-20 08:47:54 51°13.8 2°38.96 7.9 13.7 1 14.5
2003-08-20 08:48:00 51°13.82 2°38.97 7.8 13.7 1 14.4
2003-08-20 08:48:06 51°13.84 2°38.97 7.4 13.7 1 14.4
2003-08-20 08:48:10 51°13.86 2°38.97 7.3 13.7 1 14.3
2003-08-20 08:48:14 51°13.87 2°38.97 7.2 13.7   14.2
2003-08-20 08:48:20 51°13.89 2°38.97 7.2 13.7 1 13.9
2003-08-20 08:48:26 51°13.92 2°38.97 7.4 13.7 1 13.9
2003-08-20 08:48:30 51°13.93 2°38.97 7.8 13.6 1 13.7
2003-08-20 08:48:34 51°13.95 2°38.97 6.5 13.6 359 13.7
2003-08-20 08:48:40 51°13.97 2°38.96 2.9 13.5 354 13.6
2003-08-20 08:48:46 51°13.99 2°38.96 358.4 13.5 348 13.4
2003-08-20 08:48:50 51°14.01 2°38.95 353.6 13.4 345 13.1
2003-08-20 08:48:54 51°14.02 2°38.94 348.6 13.4 339 12.7
2003-08-20 08:49:00 51°14.04 2°38.93 344.5 13.5 336 12.9
2003-08-20 08:49:04 51°14.05 2°38.92 341.1 13.5 332 12.6
2003-08-20 08:49:10 51°14.07 2°38.9 339 13.5 331 12.4
2003-08-20 08:49:14 51°14.09 2°38.89 336.2 13.5 329 11.1
2003-08-20 08:49:20 51°14.1 2°38.87 331.8 13.5 323 11.4
2003-08-20 08:49:26 51°14.12 2°38.84 327.8 13.5 319 11.1
2003-08-20 08:49:30 51°14.13 2°38.83 324.5 13.5 317 11.4
2003-08-20 08:49:34 51°14.14 2°38.81 322.8 13.6 316 12.7
2003-08-20 08:49:40 51°14.16 2°38.78 321.1 13.7 314 13
2003-08-20 08:49:46 51°14.18 2°38.76 319.7 13.8 312 13.1
2003-08-20 08:49:50 51°14.18 2°38.74 315.8 13.8 307 13
2003-08-20 08:49:54 51°14.19 2°38.72 311 13.8 302 14.8